Time;durP1;ratioP1;P1;durP2;ratioP2;P2;SDS_P1;SDS_P2;PMS_P1;PMS_P2;Temp;Humidity;BMP_temperature;BMP_pressure;BME280_temperature;BME280_humidity;BME280_pressure;Samples;Min_cycle;Max_cycle;Signal;HPM_P1;HPM_P2
2022/04/24 00:00:57;;;;;;;14.90;9.60;;;23.90;50.40;;;;;;220247;1267;25484;-67
2022/04/24 00:06:01;;;;;;;16.80;9.50;;;23.80;50.40;;;;;;220589;1267;24045;-67
2022/04/24 00:11:05;;;;;;;16.10;9.00;;;23.80;50.90;;;;;;220135;1267;24315;-68
2022/04/24 00:16:10;;;;;;;13.60;8.40;;;23.70;51.00;;;;;;220257;1267;24422;-66
2022/04/24 00:21:14;;;;;;;15.30;9.00;;;23.60;50.70;;;;;;220820;1267;25245;-67
2022/04/24 00:26:17;;;;;;;14.50;8.80;;;23.50;50.80;;;;;;220403;1267;22611;-67
2022/04/24 00:31:21;;;;;;;12.90;8.20;;;23.50;50.80;;;;;;220654;1269;25603;-66
2022/04/24 00:36:24;;;;;;;15.00;9.20;;;23.40;50.90;;;;;;220687;1267;25555;-66
2022/04/24 00:41:31;;;;;;;12.70;8.50;;;23.30;50.90;;;;;;220519;1267;24217;-67
2022/04/24 00:46:45;;;;;;;16.10;9.00;;;23.30;51.30;;;;;;220666;1267;24280;-67
2022/04/24 00:51:53;;;;;;;16.70;10.40;;;23.20;50.90;;;;;;220745;1267;25355;-67
2022/04/24 00:56:57;;;;;;;13.70;8.90;;;23.20;51.00;;;;;;220315;1270;22685;-66
2022/04/24 01:02:05;;;;;;;13.50;8.90;;;23.10;51.10;;;;;;220030;1271;22631;-67
2022/04/24 01:07:10;;;;;;;16.80;9.20;;;23.10;51.20;;;;;;220257;1270;22684;-65
2022/04/24 01:12:14;;;;;;;14.00;8.80;;;23.00;51.20;;;;;;220471;1268;24085;-66
2022/04/24 01:17:18;;;;;;;12.90;8.50;;;22.90;51.50;;;;;;220197;1267;22810;-66
2022/04/24 01:22:22;;;;;;;13.70;9.30;;;22.90;51.30;;;;;;220267;1267;22620;-66
2022/04/24 01:27:26;;;;;;;13.60;9.10;;;22.90;51.30;;;;;;220037;1270;24373;-67
2022/04/24 01:32:29;;;;;;;14.20;8.60;;;22.80;51.30;;;;;;220075;1267;22546;-65
2022/04/24 01:37:34;;;;;;;15.10;9.10;;;22.80;51.40;;;;;;220008;1268;25364;-66
2022/04/24 01:42:38;;;;;;;12.00;8.30;;;22.80;51.00;;;;;;220275;1267;22567;-67
2022/04/24 01:47:41;;;;;;;12.90;8.40;;;22.70;51.60;;;;;;220237;1268;24429;-65
2022/04/24 01:52:45;;;;;;;12.40;8.40;;;22.70;51.60;;;;;;220233;1268;22615;-65
2022/04/24 01:57:49;;;;;;;14.20;9.20;;;22.70;51.70;;;;;;220241;1267;24432;-67
2022/04/24 02:02:53;;;;;;;15.50;8.70;;;22.60;51.70;;;;;;220445;1270;22751;-67
2022/04/24 02:07:57;;;;;;;12.10;7.90;;;22.60;51.80;;;;;;220472;1268;25230;-65
2022/04/24 02:13:01;;;;;;;12.50;8.40;;;22.50;51.80;;;;;;220150;1268;22556;-66
2022/04/24 02:18:05;;;;;;;13.30;8.60;;;22.50;51.90;;;;;;220308;1268;24483;-65
2022/04/24 02:23:09;;;;;;;13.00;8.20;;;22.50;51.90;;;;;;220758;1270;25294;-66
2022/04/24 02:28:13;;;;;;;10.80;7.10;;;22.80;52.10;;;;;;220421;1270;22561;-68
2022/04/24 02:33:17;;;;;;;11.80;8.00;;;23.10;51.00;;;;;;220236;1271;22588;-67
2022/04/24 02:38:21;;;;;;;10.60;7.40;;;23.30;50.20;;;;;;220299;1268;22981;-66
2022/04/24 02:43:24;;;;;;;12.10;7.80;;;23.50;49.90;;;;;;220360;1269;24216;-66
2022/04/24 02:48:28;;;;;;;12.80;8.20;;;23.60;49.70;;;;;;220407;1268;25524;-65
2022/04/24 02:53:32;;;;;;;13.90;7.60;;;23.70;49.30;;;;;;220362;1270;24241;-67
2022/04/24 02:58:38;;;;;;;13.00;7.70;;;23.70;49.10;;;;;;220137;1268;22603;-65
2022/04/24 03:03:42;;;;;;;12.80;7.60;;;23.80;49.00;;;;;;220535;1270;24389;-65
2022/04/24 03:08:47;;;;;;;10.30;7.20;;;23.90;48.90;;;;;;220317;1271;24028;-65
2022/04/24 03:13:51;;;;;;;10.80;6.80;;;23.90;49.10;;;;;;220196;1271;24410;-67
2022/04/24 03:18:55;;;;;;;10.40;7.20;;;23.80;48.80;;;;;;219851;1268;24687;-67
2022/04/24 03:23:59;;;;;;;11.30;7.00;;;23.70;48.90;;;;;;220162;1268;22548;-67
2022/04/24 03:29:03;;;;;;;10.30;6.60;;;23.70;49.10;;;;;;220083;1268;22733;-67
2022/04/24 03:34:07;;;;;;;10.90;7.00;;;23.60;49.10;;;;;;220492;1269;22530;-67
2022/04/24 03:39:11;;;;;;;11.80;7.30;;;23.60;49.20;;;;;;219876;1268;22537;-66
2022/04/24 03:44:14;;;;;;;10.70;6.60;;;23.50;49.60;;;;;;220186;1268;24530;-67
2022/04/24 03:49:18;;;;;;;10.90;7.00;;;23.40;49.30;;;;;;220139;1268;24273;-67
2022/04/24 03:54:22;;;;;;;9.20;6.60;;;23.40;49.60;;;;;;220121;1268;24276;-66
2022/04/24 03:59:26;;;;;;;12.10;7.10;;;23.40;49.60;;;;;;220794;1268;25962;-67
2022/04/24 04:04:30;;;;;;;11.60;6.50;;;23.40;49.50;;;;;;220334;1268;22628;-68
2022/04/24 04:09:34;;;;;;;9.30;6.80;;;23.40;49.60;;;;;;220552;1268;26903;-66
2022/04/24 04:14:38;;;;;;;9.70;6.40;;;23.40;49.50;;;;;;220118;1268;24417;-66
2022/04/24 04:19:42;;;;;;;10.40;6.30;;;23.40;49.50;;;;;;220737;1268;25404;-68
2022/04/24 04:24:46;;;;;;;9.50;6.30;;;23.40;49.80;;;;;;219786;1267;368808;-68
2022/04/24 04:29:49;;;;;;;11.00;6.20;;;23.40;49.40;;;;;;220124;1271;22626;-68
2022/04/24 04:34:53;;;;;;;8.90;6.20;;;23.40;49.50;;;;;;220293;1268;24219;-65
2022/04/24 04:39:58;;;;;;;9.50;6.60;;;23.40;49.80;;;;;;219918;1268;22733;-67
2022/04/24 04:45:03;;;;;;;9.40;6.20;;;23.50;49.40;;;;;;220464;1268;25447;-67
2022/04/24 04:50:08;;;;;;;9.00;6.10;;;23.60;49.40;;;;;;220026;1268;27822;-66
2022/04/24 04:55:11;;;;;;;9.70;6.30;;;23.60;49.20;;;;;;220408;1268;25299;-68
2022/04/24 05:00:16;;;;;;;8.60;5.80;;;23.70;49.00;;;;;;220477;1268;23930;-67
2022/04/24 05:05:20;;;;;;;9.20;5.90;;;23.70;49.20;;;;;;220449;1268;25352;-67
2022/04/24 05:10:24;;;;;;;10.30;6.20;;;23.80;48.80;;;;;;220596;1268;22625;-67
2022/04/24 05:15:28;;;;;;;8.60;6.00;;;23.80;48.80;;;;;;220482;1268;22562;-66
2022/04/24 05:20:31;;;;;;;9.90;5.30;;;23.70;48.90;;;;;;220401;1268;22683;-66
2022/04/24 05:25:36;;;;;;;10.20;6.30;;;23.70;48.90;;;;;;220398;1267;22990;-67
2022/04/24 05:30:40;;;;;;;7.50;5.20;;;23.70;49.10;;;;;;220640;1267;25513;-66
2022/04/24 05:35:44;;;;;;;10.70;6.00;;;23.60;49.10;;;;;;220670;1267;23061;-66
2022/04/24 05:40:51;;;;;;;8.40;6.30;;;23.60;49.90;;;;;;220281;1267;24211;-64
2022/04/24 05:45:57;;;;;;;8.00;5.60;;;23.50;49.70;;;;;;220527;1267;22630;-64
2022/04/24 05:51:01;;;;;;;7.70;5.40;;;23.50;49.80;;;;;;220433;1267;22621;-66
2022/04/24 05:56:05;;;;;;;9.40;5.60;;;23.40;49.90;;;;;;220359;1267;24389;-66
2022/04/24 06:01:15;;;;;;;12.20;5.70;;;23.40;50.10;;;;;;220710;1267;23843;-64
2022/04/24 06:06:22;;;;;;;12.90;5.50;;;23.30;50.50;;;;;;220803;1267;23907;-65
2022/04/24 06:11:25;;;;;;;8.80;5.70;;;23.30;50.60;;;;;;221066;1268;22536;-65
2022/04/24 06:16:29;;;;;;;12.80;6.20;;;23.20;50.30;;;;;;220550;1267;25548;-64
2022/04/24 06:21:34;;;;;;;11.70;5.20;;;23.20;50.40;;;;;;220963;1267;24313;-65
2022/04/24 06:26:45;;;;;;;12.40;5.90;;;23.10;50.60;;;;;;220512;1267;25447;-65
2022/04/24 06:31:49;;;;;;;9.30;5.50;;;23.10;50.80;;;;;;220380;1267;24256;-65
2022/04/24 06:36:54;;;;;;;11.40;5.00;;;23.10;50.80;;;;;;220675;1267;26622;-64
2022/04/24 06:41:58;;;;;;;11.00;5.70;;;23.00;50.90;;;;;;220138;1267;22524;-63
2022/04/24 06:47:02;;;;;;;9.90;5.70;;;23.00;51.00;;;;;;220394;1267;22557;-64
2022/04/24 06:52:07;;;;;;;11.00;5.80;;;23.00;51.10;;;;;;220735;1267;24293;-62
2022/04/24 06:57:11;;;;;;;8.60;5.60;;;23.00;51.20;;;;;;220633;1267;25347;-65
2022/04/24 07:02:14;;;;;;;9.60;4.80;;;22.90;51.20;;;;;;220470;1268;24216;-62
2022/04/24 07:07:21;;;;;;;9.00;4.90;;;22.90;51.20;;;;;;220410;1267;25694;-62
2022/04/24 07:12:52;;;;;;;7.60;5.10;;;22.90;51.50;;;;;;220332;1267;25615;-63
2022/04/24 07:17:59;;;;;;;8.60;5.30;;;22.90;51.20;;;;;;220500;1267;22731;-62
2022/04/24 07:23:07;;;;;;;6.90;5.00;;;22.90;51.30;;;;;;220592;1267;25609;-62
2022/04/24 07:28:19;;;;;;;6.80;4.20;;;22.90;51.30;;;;;;220539;1267;22559;-64
2022/04/24 07:33:28;;;;;;;6.80;4.40;;;22.90;51.20;;;;;;220227;1268;25402;-63
2022/04/24 07:38:42;;;;;;;9.40;5.50;;;22.90;51.20;;;;;;220278;1267;25105;-63
2022/04/24 07:43:48;;;;;;;10.20;5.20;;;22.80;51.10;;;;;;220346;1266;23023;-62
2022/04/24 07:48:52;;;;;;;6.10;4.10;;;22.80;51.10;;;;;;220224;1268;25502;-64
2022/04/24 07:53:56;;;;;;;7.40;4.40;;;22.80;50.90;;;;;;220659;1268;25244;-65
2022/04/24 07:59:06;;;;;;;6.10;4.30;;;22.80;50.70;;;;;;220429;1266;22687;-63
2022/04/24 08:04:10;;;;;;;8.60;4.20;;;22.80;50.80;;;;;;220552;1265;24424;-60
2022/04/24 08:09:14;;;;;;;7.40;4.30;;;22.80;50.70;;;;;;220508;1267;22824;-62
2022/04/24 08:14:20;;;;;;;9.30;4.10;;;22.80;51.30;;;;;;220235;1265;22554;-60
2022/04/24 08:19:24;;;;;;;8.90;4.90;;;22.80;51.30;;;;;;220313;1267;25252;-60
2022/04/24 08:24:29;;;;;;;15.40;4.80;;;22.80;51.30;;;;;;220371;1267;22991;-56
2022/04/24 08:29:34;;;;;;;13.70;4.90;;;22.80;51.70;;;;;;220447;1267;24412;-62
2022/04/24 08:34:37;;;;;;;8.10;4.00;;;22.80;52.00;;;;;;220552;1267;22550;-59
2022/04/24 08:39:41;;;;;;;10.80;4.20;;;22.80;52.70;;;;;;220039;1267;24412;-59
2022/04/24 08:44:46;;;;;;;11.00;4.60;;;22.80;52.80;;;;;;220416;1267;26669;-60
2022/04/24 08:49:57;;;;;;;8.40;4.20;;;22.80;53.30;;;;;;220215;1267;22529;-62
2022/04/24 08:55:02;;;;;;;8.50;4.50;;;22.80;53.10;;;;;;220451;1267;22547;-59
2022/04/24 09:00:08;;;;;;;9.00;4.30;;;22.80;53.00;;;;;;220411;1267;22550;-60
2022/04/24 09:05:30;;;;;;;12.20;4.80;;;22.80;52.80;;;;;;220236;1267;22525;-60
2022/04/24 09:10:48;;;;;;;11.30;4.80;;;22.80;52.80;;;;;;220714;1267;22544;-60
2022/04/24 09:16:00;;;;;;;10.90;5.00;;;22.90;52.80;;;;;;219830;1267;22690;-61
2022/04/24 09:21:07;;;;;;;16.20;5.00;;;22.90;52.50;;;;;;220773;1267;22573;-62
2022/04/24 09:26:16;;;;;;;19.00;5.50;;;22.90;53.20;;;;;;220282;1267;24007;-61
2022/04/24 09:31:27;;;;;;;14.00;5.00;;;22.90;53.10;;;;;;220651;1266;23221;-61
2022/04/24 09:36:30;;;;;;;13.60;4.60;;;22.90;52.80;;;;;;221795;1267;23141;-60
2022/04/24 09:41:34;;;;;;;12.40;5.20;;;22.90;52.30;;;;;;220455;1267;22761;-59
2022/04/24 09:46:38;;;;;;;17.30;5.50;;;22.90;52.40;;;;;;220598;1267;25241;-63
2022/04/24 09:51:42;;;;;;;19.30;5.60;;;22.90;52.30;;;;;;220102;1267;24409;-60
2022/04/24 09:56:49;;;;;;;13.10;5.60;;;22.90;52.30;;;;;;220392;1267;24326;-56
2022/04/24 10:01:55;;;;;;;13.10;5.10;;;22.90;52.80;;;;;;220385;1267;22525;-52
2022/04/24 10:06:59;;;;;;;18.70;5.70;;;22.90;51.90;;;;;;220365;1267;24397;-53
2022/04/24 10:12:19;;;;;;;14.30;5.50;;;22.80;51.40;;;;;;221972;1267;22530;-52
2022/04/24 10:17:49;;;;;;;11.90;6.00;;;22.70;51.40;;;;;;220528;1267;22563;-55
2022/04/24 10:22:54;;;;;;;16.40;5.70;;;22.70;51.20;;;;;;220336;1268;23072;-54
2022/04/24 10:28:16;;;;;;;11.90;5.40;;;22.70;51.10;;;;;;220879;1267;22612;-54
2022/04/24 10:33:22;;;;;;;17.30;5.90;;;22.70;51.00;;;;;;220617;1267;22528;-57
2022/04/24 10:38:29;;;;;;;13.30;5.50;;;22.70;51.00;;;;;;220765;1267;22554;-55
2022/04/24 10:43:51;;;;;;;14.50;6.00;;;22.70;50.80;;;;;;220630;1267;24408;-57
2022/04/24 10:49:16;;;;;;;16.60;6.30;;;22.60;50.70;;;;;;220746;1267;22932;-54
2022/04/24 10:54:36;;;;;;;11.00;6.30;;;22.60;50.60;;;;;;220541;1268;26568;-55
2022/04/24 10:59:48;;;;;;;15.30;5.30;;;22.60;50.80;;;;;;220344;1267;22707;-54
2022/04/24 11:05:03;;;;;;;13.10;6.00;;;22.60;50.40;;;;;;220828;1267;24427;-54
2022/04/24 11:10:09;;;;;;;15.50;5.90;;;22.60;51.90;;;;;;220550;1267;26038;-54
2022/04/24 11:15:14;;;;;;;13.60;5.70;;;22.60;53.00;;;;;;220618;1267;24221;-56
2022/04/24 11:20:19;;;;;;;12.90;5.90;;;22.60;53.10;;;;;;220624;1268;25326;-55
2022/04/24 11:25:24;;;;;;;14.30;6.00;;;22.60;52.40;;;;;;220855;1267;22996;-56
2022/04/24 11:30:37;;;;;;;11.10;5.50;;;22.60;52.10;;;;;;220889;1267;23019;-53
2022/04/24 11:35:41;;;;;;;13.30;5.90;;;22.60;51.70;;;;;;220514;1267;22553;-53
2022/04/24 11:40:48;;;;;;;12.70;5.50;;;22.60;51.60;;;;;;220268;1267;22628;-56
2022/04/24 11:51:18;;;;;;;11.10;5.40;;;22.60;50.90;;;;;;220971;1267;24281;-53
2022/04/24 11:56:50;;;;;;;11.50;5.40;;;22.50;50.80;;;;;;220699;1267;25328;-56
2022/04/24 12:01:59;;;;;;;8.40;4.90;;;22.50;50.80;;;;;;220250;1267;22813;-54
2022/04/24 12:07:08;;;;;;;9.80;5.30;;;22.50;50.50;;;;;;220501;1267;25308;-55
2022/04/24 12:12:16;;;;;;;9.00;4.80;;;22.50;49.90;;;;;;220864;1267;24353;-52
2022/04/24 12:17:22;;;;;;;12.80;5.80;;;22.50;50.30;;;;;;220525;1268;23030;-55
2022/04/24 12:22:36;;;;;;;9.20;5.30;;;22.50;50.10;;;;;;220597;1267;24303;-52
2022/04/24 12:27:51;;;;;;;10.80;5.30;;;22.60;50.00;;;;;;220618;1267;22903;-55
2022/04/24 12:33:04;;;;;;;9.70;5.20;;;22.90;49.50;;;;;;220390;1268;22554;-54
2022/04/24 12:38:20;;;;;;;8.90;5.00;;;23.10;48.90;;;;;;220666;1267;22648;-53
2022/04/24 12:43:30;;;;;;;8.50;4.80;;;23.10;48.50;;;;;;220614;1267;25357;-52
2022/04/24 12:48:47;;;;;;;10.40;4.80;;;23.30;48.10;;;;;;220792;1267;25555;-55
2022/04/24 12:53:54;;;;;;;11.40;5.50;;;23.40;48.10;;;;;;220524;1267;22715;-56
2022/04/24 12:59:04;;;;;;;8.90;5.00;;;23.50;47.80;;;;;;220433;1267;22718;-55
2022/04/24 13:04:10;;;;;;;7.90;4.10;;;23.60;47.60;;;;;;220893;1267;22547;-55
2022/04/24 13:09:14;;;;;;;8.10;4.80;;;23.60;47.20;;;;;;220945;1267;25386;-53
2022/04/24 13:14:29;;;;;;;9.70;5.10;;;23.60;46.80;;;;;;220847;1267;22553;-54
2022/04/24 13:19:39;;;;;;;6.80;4.40;;;23.50;47.20;;;;;;220700;1267;26587;-56
2022/04/24 13:24:54;;;;;;;7.80;4.70;;;23.50;47.50;;;;;;220840;1267;24427;-51
2022/04/24 13:29:58;;;;;;;8.10;4.10;;;23.50;47.30;;;;;;220666;1267;22550;-55
2022/04/24 13:35:04;;;;;;;7.30;4.80;;;23.50;47.30;;;;;;220837;1267;24397;-57
2022/04/24 13:40:17;;;;;;;6.80;4.60;;;23.40;47.40;;;;;;220630;1267;22599;-53
2022/04/24 13:45:28;;;;;;;8.60;4.70;;;23.40;47.40;;;;;;220489;1267;22888;-55
2022/04/24 13:50:58;;;;;;;7.50;4.60;;;23.40;47.50;;;;;;220411;1267;24409;-53
2022/04/24 13:56:07;;;;;;;7.30;4.90;;;23.40;47.50;;;;;;220704;1267;24421;-55
2022/04/24 14:01:20;;;;;;;7.30;4.60;;;23.30;47.50;;;;;;220499;1267;25335;-55
2022/04/24 14:06:26;;;;;;;7.30;4.90;;;23.30;47.90;;;;;;220584;1267;22553;-55
2022/04/24 14:11:35;;;;;;;7.10;4.50;;;23.30;47.60;;;;;;220638;1267;22549;-53
2022/04/24 14:16:38;;;;;;;7.50;4.40;;;23.40;47.70;;;;;;220729;1266;22762;-54
2022/04/24 14:21:42;;;;;;;6.60;4.30;;;23.30;47.50;;;;;;220398;1268;25205;-56
2022/04/24 14:26:54;;;;;;;7.80;4.40;;;23.30;47.60;;;;;;220427;1267;25353;-54
2022/04/24 14:31:58;;;;;;;8.10;4.80;;;23.40;47.50;;;;;;220531;1267;24234;-54
2022/04/24 14:37:02;;;;;;;6.80;4.70;;;23.50;47.40;;;;;;220612;1267;25310;-54
2022/04/24 14:42:08;;;;;;;9.00;4.90;;;23.60;47.50;;;;;;220691;1267;22545;-54
2022/04/24 14:58:05;;;;;;;6.50;4.40;;;23.80;46.60;;;;;;220407;1267;24409;-53
2022/04/24 15:03:21;;;;;;;6.70;4.10;;;23.80;46.60;;;;;;220383;1267;25464;-56
2022/04/24 15:08:31;;;;;;;6.80;4.30;;;23.80;46.60;;;;;;220561;1267;25484;-54
2022/04/24 15:13:35;;;;;;;8.00;4.90;;;23.70;46.20;;;;;;220804;1267;24278;-53
2022/04/24 15:18:39;;;;;;;7.50;4.50;;;23.70;46.80;;;;;;220459;1267;22783;-52
2022/04/24 15:23:49;;;;;;;6.80;4.60;;;23.70;46.90;;;;;;220390;1267;25449;-54
2022/04/24 15:28:53;;;;;;;6.60;4.50;;;23.60;47.30;;;;;;220442;1267;22547;-56
2022/04/24 15:34:02;;;;;;;6.40;4.40;;;23.60;47.10;;;;;;220345;1267;22714;-52
2022/04/24 15:39:08;;;;;;;7.00;4.90;;;23.50;47.10;;;;;;220591;1267;22658;-55
2022/04/24 15:44:19;;;;;;;6.50;3.90;;;23.50;47.20;;;;;;220535;1267;22547;-56
2022/04/24 15:49:26;;;;;;;6.00;4.20;;;23.50;47.30;;;;;;220849;1267;22565;-55
2022/04/24 15:54:31;;;;;;;6.00;4.70;;;23.50;47.40;;;;;;220492;1267;25747;-56
2022/04/24 15:59:35;;;;;;;6.60;5.00;;;23.40;47.30;;;;;;220453;1268;22633;-52
2022/04/24 16:04:39;;;;;;;7.20;5.10;;;23.40;47.40;;;;;;221077;1267;23932;-52
2022/04/24 16:09:49;;;;;;;7.90;5.10;;;23.40;47.60;;;;;;220881;1267;22522;-57
2022/04/24 16:14:54;;;;;;;6.30;4.60;;;23.40;47.30;;;;;;220687;1267;22687;-57
2022/04/24 16:20:03;;;;;;;6.40;4.30;;;23.40;47.20;;;;;;220744;1268;22554;-51
2022/04/24 16:25:11;;;;;;;6.80;5.00;;;23.40;47.20;;;;;;220495;1268;22566;-56
2022/04/24 16:30:15;;;;;;;5.80;4.50;;;23.40;47.10;;;;;;220681;1267;22546;-53
2022/04/24 16:35:34;;;;;;;7.40;4.70;;;23.40;47.20;;;;;;220644;1268;25627;-55
2022/04/24 16:40:37;;;;;;;7.20;5.20;;;23.30;47.10;;;;;;220841;1267;22549;-51
2022/04/24 16:45:42;;;;;;;5.90;4.40;;;23.30;47.10;;;;;;220887;1267;22547;-54
2022/04/24 17:01:51;;;;;;;6.20;4.60;;;23.30;47.00;;;;;;219775;1270;22601;-56
2022/04/24 17:06:56;;;;;;;10.20;4.90;;;23.40;47.00;;;;;;220486;1267;24418;-61
2022/04/24 17:12:02;;;;;;;10.20;5.80;;;23.40;47.10;;;;;;220785;1268;25521;-62
2022/04/24 17:17:07;;;;;;;10.20;4.90;;;23.40;47.00;;;;;;220246;1267;26643;-59
2022/04/24 17:22:15;;;;;;;7.30;4.80;;;23.50;48.00;;;;;;220254;1267;22553;-60
2022/04/24 17:27:23;;;;;;;7.30;4.50;;;23.50;47.80;;;;;;220071;1267;22712;-61
2022/04/24 17:32:34;;;;;;;6.40;4.80;;;23.60;47.50;;;;;;220197;1267;23793;-62
2022/04/24 17:37:41;;;;;;;;;;;23.60;48.10;;;;;;220183;1266;22714;-59
2022/04/24 17:42:49;;;;;;;7.80;5.20;;;23.60;48.30;;;;;;219758;1270;22747;-58
2022/04/24 17:47:58;;;;;;;9.10;5.00;;;23.60;49.00;;;;;;219758;1268;22578;-58
2022/04/24 17:53:20;;;;;;;13.80;4.30;;;23.70;49.60;;;;;;219972;1270;24271;-58
2022/04/24 17:58:26;;;;;;;10.70;5.20;;;23.60;50.30;;;;;;220123;1267;24423;-59
2022/04/24 18:03:33;;;;;;;10.70;5.20;;;23.50;50.90;;;;;;220142;1267;24836;-57
2022/04/24 18:08:39;;;;;;;9.20;4.50;;;23.40;51.50;;;;;;219850;1270;22560;-58
2022/04/24 18:13:45;;;;;;;10.10;5.80;;;23.30;52.40;;;;;;220101;1267;22570;-60
2022/04/24 18:18:58;;;;;;;13.10;5.40;;;23.30;52.70;;;;;;220302;1267;24802;-59
2022/04/24 18:24:09;;;;;;;11.80;5.40;;;23.40;54.70;;;;;;219910;1267;22685;-60
2022/04/24 18:29:16;;;;;;;14.10;4.50;;;23.30;54.10;;;;;;220114;1267;25455;-56
2022/04/24 18:34:29;;;;;;;15.80;5.00;;;23.20;54.40;;;;;;219862;1270;22538;-61
2022/04/24 18:39:37;;;;;;;14.30;5.70;;;23.20;54.50;;;;;;220169;1267;22531;-60
2022/04/24 18:44:47;;;;;;;11.00;4.70;;;23.20;54.50;;;;;;220188;1267;22748;-58
2022/04/24 18:49:53;;;;;;;10.60;5.30;;;23.20;54.20;;;;;;220382;1267;24379;-58
2022/04/24 18:55:07;;;;;;;20.50;5.30;;;23.20;54.40;;;;;;220759;1267;22586;-56
2022/04/24 19:00:13;;;;;;;14.90;5.60;;;23.20;54.10;;;;;;220375;1267;25850;-57
2022/04/24 19:16:14;;;;;;;18.10;6.10;;;23.00;54.10;;;;;;220365;1267;24376;-51
2022/04/24 19:21:24;;;;;;;14.30;6.30;;;23.00;54.00;;;;;;220603;1267;22795;-51
2022/04/24 19:26:30;;;;;;;17.80;6.70;;;23.00;53.80;;;;;;220383;1267;25498;-49
2022/04/24 19:31:33;;;;;;;13.70;5.60;;;23.00;56.50;;;;;;220712;1270;22553;-50
2022/04/24 19:36:38;;;;;;;20.00;7.10;;;23.00;56.50;;;;;;220347;1268;24318;-50
2022/04/24 19:41:44;;;;;;;19.10;7.00;;;23.00;56.10;;;;;;220351;1268;22894;-48
2022/04/24 19:46:49;;;;;;;16.00;6.80;;;22.90;56.00;;;;;;220373;1267;22536;-51
2022/04/24 19:51:55;;;;;;;17.70;6.20;;;22.90;55.60;;;;;;220391;1268;24298;-53
2022/04/24 19:57:07;;;;;;;14.30;6.90;;;22.90;55.60;;;;;;220357;1268;22531;-53
2022/04/24 20:02:17;;;;;;;14.40;6.80;;;22.90;55.50;;;;;;220382;1270;22548;-53
2022/04/24 20:07:22;;;;;;;19.70;6.60;;;22.90;55.60;;;;;;220454;1267;24208;-52
2022/04/24 20:12:30;;;;;;;13.10;6.70;;;22.80;55.60;;;;;;220442;1270;24379;-52
2022/04/24 20:17:58;;;;;;;14.00;6.60;;;22.80;56.00;;;;;;220253;1268;24282;-50
2022/04/24 20:23:10;;;;;;;15.10;6.60;;;22.80;55.70;;;;;;220336;1267;24235;-48
2022/04/24 20:28:19;;;;;;;12.60;6.30;;;22.80;55.60;;;;;;220502;1268;25429;-50
2022/04/24 20:33:30;;;;;;;13.70;5.60;;;22.80;56.00;;;;;;220537;1267;22626;-52
2022/04/24 20:38:38;;;;;;;8.50;5.50;;;22.80;55.60;;;;;;220257;1271;22554;-55
2022/04/24 20:43:52;;;;;;;10.70;6.40;;;22.70;55.60;;;;;;220464;1268;24211;-55
2022/04/24 20:49:03;;;;;;;13.30;6.40;;;22.70;55.70;;;;;;219977;1268;22544;-50
2022/04/24 20:54:43;;;;;;;14.60;6.40;;;22.60;55.80;;;;;;220248;1268;24292;-50
2022/04/24 20:59:49;;;;;;;12.90;6.00;;;22.60;55.80;;;;;;220077;1269;22711;-52
2022/04/24 21:05:06;;;;;;;10.70;5.50;;;22.70;55.80;;;;;;220200;1268;22554;-49
2022/04/24 21:10:12;;;;;;;9.50;5.50;;;22.60;55.80;;;;;;220510;1268;22628;-48
2022/04/24 21:15:17;;;;;;;9.00;5.30;;;22.60;55.90;;;;;;220579;1268;24299;-50
2022/04/24 21:20:24;;;;;;;10.40;5.30;;;22.60;55.80;;;;;;220941;1268;24214;-51
2022/04/24 21:25:31;;;;;;;15.00;5.70;;;22.50;55.90;;;;;;220452;1268;24794;-52
2022/04/24 21:30:43;;;;;;;14.40;5.90;;;22.50;56.50;;;;;;220437;1268;22580;-51
2022/04/24 21:35:47;;;;;;;13.50;6.00;;;22.60;57.50;;;;;;220073;1268;22720;-58
2022/04/24 21:40:51;;;;;;;10.00;5.50;;;22.50;57.00;;;;;;220599;1268;22694;-58
2022/04/24 21:45:58;;;;;;;9.50;5.30;;;22.50;56.70;;;;;;220499;1268;25241;-58
2022/04/24 21:51:05;;;;;;;10.60;5.20;;;22.50;56.60;;;;;;220328;1268;24427;-59
2022/04/24 21:56:10;;;;;;;8.80;5.20;;;22.50;56.60;;;;;;220002;1268;23910;-58
2022/04/24 22:01:15;;;;;;;9.00;5.60;;;22.40;56.70;;;;;;220943;1268;23908;-57
2022/04/24 22:06:21;;;;;;;9.40;5.60;;;22.40;56.80;;;;;;220510;1268;22682;-57
2022/04/24 22:11:24;;;;;;;8.10;5.10;;;22.40;56.50;;;;;;220424;1268;23938;-56
2022/04/24 22:16:35;;;;;;;8.10;4.80;;;22.40;55.70;;;;;;220560;1265;24240;-58
2022/04/24 22:27:08;;;;;;;7.10;4.40;;;22.40;56.40;;;;;;220219;1268;22622;-58
2022/04/24 22:32:12;;;;;;;8.80;4.70;;;22.30;56.50;;;;;;220712;1270;25245;-57
2022/04/24 22:37:22;;;;;;;9.10;5.10;;;22.60;56.80;;;;;;220439;1268;24218;-56
2022/04/24 22:42:27;;;;;;;8.20;4.10;;;22.90;56.20;;;;;;220444;1268;22546;-59
2022/04/24 22:47:52;;;;;;;10.10;4.60;;;23.20;55.30;;;;;;220754;1268;25506;-58
2022/04/24 22:52:58;;;;;;;7.20;4.70;;;23.30;55.10;;;;;;220561;1268;22620;-58
2022/04/24 22:58:08;;;;;;;6.90;4.10;;;23.40;54.30;;;;;;220741;1268;23902;-57
2022/04/24 23:03:14;;;;;;;7.90;4.50;;;23.50;54.30;;;;;;220742;1268;22624;-58
2022/04/24 23:08:21;;;;;;;7.60;4.70;;;23.60;53.90;;;;;;220512;1268;23209;-57
2022/04/24 23:13:27;;;;;;;7.50;4.00;;;23.70;53.70;;;;;;220729;1268;24238;-58
2022/04/24 23:23:56;;;;;;;5.60;4.10;;;23.70;53.40;;;;;;220842;1265;25373;-56
2022/04/24 23:29:08;;;;;;;6.10;3.90;;;23.70;53.90;;;;;;220701;1265;23957;-58
2022/04/24 23:34:20;;;;;;;6.10;3.70;;;23.60;53.60;;;;;;220857;1265;25238;-56
2022/04/24 23:39:25;;;;;;;7.00;4.10;;;23.60;53.80;;;;;;220614;1265;22592;-61
2022/04/24 23:44:30;;;;;;;6.90;4.20;;;23.60;53.80;;;;;;220863;1265;22543;-57
2022/04/24 23:49:35;;;;;;;6.20;3.90;;;23.50;53.90;;;;;;220617;1265;25550;-57
2022/04/24 23:54:38;;;;;;;5.60;3.60;;;23.50;54.40;;;;;;220752;1265;22547;-57
2022/04/24 23:59:42;;;;;;;5.60;4.00;;;23.50;54.00;;;;;;220810;1265;25451;-58
